sensor_id;sensor_type;location;lat;lon;timestamp;pressure;altitude;pressure_sealevel;temperature;humidity
8075;BME280;4080;42.676;23.372;2022-11-12T00:00:49;96442.81;;;9.97;100.00
8075;BME280;4080;42.676;23.372;2022-11-12T00:03:16;96438.69;;;10.01;100.00
8075;BME280;4080;42.676;23.372;2022-11-12T00:05:44;96425.03;;;9.92;100.00
8075;BME280;4080;42.676;23.372;2022-11-12T00:08:11;96434.09;;;10.08;100.00
8075;BME280;4080;42.676;23.372;2022-11-12T00:10:38;96432.50;;;10.07;100.00
8075;BME280;4080;42.676;23.372;2022-11-12T00:13:05;96429.84;;;10.07;100.00
8075;BME280;4080;42.676;23.372;2022-11-12T00:15:32;96394.00;;;9.83;100.00
8075;BME280;4080;42.676;23.372;2022-11-12T00:17:58;96433.41;;;10.01;100.00
8075;BME280;4080;42.676;23.372;2022-11-12T00:20:25;96432.03;;;9.99;100.00
8075;BME280;4080;42.676;23.372;2022-11-12T00:22:54;96423.44;;;9.91;100.00
8075;BME280;4080;42.676;23.372;2022-11-12T00:25:20;96432.97;;;9.92;100.00
8075;BME280;4080;42.676;23.372;2022-11-12T00:27:47;96430.09;;;9.94;100.00
8075;BME280;4080;42.676;23.372;2022-11-12T00:30:14;96432.72;;;9.94;100.00
8075;BME280;4080;42.676;23.372;2022-11-12T00:32:41;96433.75;;;9.93;100.00
8075;BME280;4080;42.676;23.372;2022-11-12T00:35:08;96435.25;;;9.89;100.00
8075;BME280;4080;42.676;23.372;2022-11-12T00:37:36;96435.00;;;9.79;100.00
8075;BME280;4080;42.676;23.372;2022-11-12T00:40:06;96435.31;;;9.71;100.00
8075;BME280;4080;42.676;23.372;2022-11-12T00:42:33;96349.78;;;9.08;100.00
8075;BME280;4080;42.676;23.372;2022-11-12T00:44:59;96437.38;;;9.57;100.00
8075;BME280;4080;42.676;23.372;2022-11-12T00:47:26;96434.50;;;9.58;100.00
8075;BME280;4080;42.676;23.372;2022-11-12T00:49:53;96432.09;;;9.57;100.00
8075;BME280;4080;42.676;23.372;2022-11-12T00:52:20;96432.34;;;9.67;100.00
8075;BME280;4080;42.676;23.372;2022-11-12T00:54:47;96430.19;;;9.76;100.00
8075;BME280;4080;42.676;23.372;2022-11-12T00:57:15;96428.50;;;9.81;100.00
8075;BME280;4080;42.676;23.372;2022-11-12T00:59:42;96430.44;;;9.86;100.00
8075;BME280;4080;42.676;23.372;2022-11-12T01:02:09;96415.78;;;9.90;100.00
8075;BME280;4080;42.676;23.372;2022-11-12T01:04:35;96408.19;;;9.93;100.00
8075;BME280;4080;42.676;23.372;2022-11-12T01:07:02;96405.34;;;9.95;100.00
8075;BME280;4080;42.676;23.372;2022-11-12T01:09:29;96404.75;;;9.93;100.00
8075;BME280;4080;42.676;23.372;2022-11-12T01:11:56;96416.00;;;10.00;100.00
8075;BME280;4080;42.676;23.372;2022-11-12T01:14:24;96420.00;;;10.03;100.00
8075;BME280;4080;42.676;23.372;2022-11-12T01:16:50;96420.81;;;10.03;100.00
8075;BME280;4080;42.676;23.372;2022-11-12T01:19:20;96405.69;;;9.99;100.00
8075;BME280;4080;42.676;23.372;2022-11-12T01:21:46;96411.28;;;10.02;100.00
8075;BME280;4080;42.676;23.372;2022-11-12T01:24:13;96408.31;;;9.99;100.00
8075;BME280;4080;42.676;23.372;2022-11-12T01:26:42;96426.06;;;10.03;100.00
8075;BME280;4080;42.676;23.372;2022-11-12T01:29:09;96420.47;;;10.00;100.00
8075;BME280;4080;42.676;23.372;2022-11-12T01:31:37;96417.03;;;9.99;100.00
8075;BME280;4080;42.676;23.372;2022-11-12T01:34:06;96412.78;;;9.98;100.00
8075;BME280;4080;42.676;23.372;2022-11-12T01:36:35;96398.34;;;9.89;100.00
8075;BME280;4080;42.676;23.372;2022-11-12T01:39:03;96405.56;;;9.93;100.00
8075;BME280;4080;42.676;23.372;2022-11-12T01:41:32;96381.13;;;9.75;100.00
8075;BME280;4080;42.676;23.372;2022-11-12T01:44:10;96382.97;;;9.74;100.00
8075;BME280;4080;42.676;23.372;2022-11-12T01:46:45;96396.63;;;9.83;100.00
8075;BME280;4080;42.676;23.372;2022-11-12T01:49:18;96400.88;;;9.84;100.00
8075;BME280;4080;42.676;23.372;2022-11-12T01:51:49;96401.34;;;9.81;100.00
8075;BME280;4080;42.676;23.372;2022-11-12T01:54:17;96388.81;;;9.76;100.00
8075;BME280;4080;42.676;23.372;2022-11-12T01:56:46;96396.94;;;9.75;100.00
8075;BME280;4080;42.676;23.372;2022-11-12T01:59:19;96393.97;;;9.71;100.00
8075;BME280;4080;42.676;23.372;2022-11-12T02:01:48;96394.19;;;9.70;100.00
8075;BME280;4080;42.676;23.372;2022-11-12T02:04:15;96390.53;;;9.71;100.00
8075;BME280;4080;42.676;23.372;2022-11-12T02:06:44;96392.72;;;9.62;100.00
8075;BME280;4080;42.676;23.372;2022-11-12T02:09:12;96388.09;;;9.46;100.00
8075;BME280;4080;42.676;23.372;2022-11-12T02:11:42;96395.75;;;9.47;100.00
8075;BME280;4080;42.676;23.372;2022-11-12T02:14:09;96399.81;;;9.50;100.00
8075;BME280;4080;42.676;23.372;2022-11-12T02:16:37;96396.94;;;9.51;100.00
8075;BME280;4080;42.676;23.372;2022-11-12T02:19:07;96404.84;;;9.51;100.00
8075;BME280;4080;42.676;23.372;2022-11-12T02:21:36;96406.69;;;9.51;100.00
8075;BME280;4080;42.676;23.372;2022-11-12T02:26:51;96373.41;;;9.26;100.00
8075;BME280;4080;42.676;23.372;2022-11-12T02:29:19;96405.28;;;9.48;100.00
8075;BME280;4080;42.676;23.372;2022-11-12T02:31:46;96389.91;;;9.45;100.00
8075;BME280;4080;42.676;23.372;2022-11-12T02:34:13;96369.41;;;9.24;100.00
8075;BME280;4080;42.676;23.372;2022-11-12T02:36:41;96401.94;;;9.41;100.00
8075;BME280;4080;42.676;23.372;2022-11-12T02:39:07;96400.22;;;9.47;100.00
8075;BME280;4080;42.676;23.372;2022-11-12T02:41:36;96393.59;;;9.44;100.00
8075;BME280;4080;42.676;23.372;2022-11-12T02:44:04;96399.19;;;9.48;100.00
8075;BME280;4080;42.676;23.372;2022-11-12T02:46:31;96390.38;;;9.42;100.00
8075;BME280;4080;42.676;23.372;2022-11-12T02:48:58;96383.03;;;9.32;100.00
8075;BME280;4080;42.676;23.372;2022-11-12T02:51:28;96384.41;;;9.23;100.00
8075;BME280;4080;42.676;23.372;2022-11-12T02:54:01;96375.66;;;9.11;100.00
8075;BME280;4080;42.676;23.372;2022-11-12T02:56:27;96384.41;;;8.93;100.00
8075;BME280;4080;42.676;23.372;2022-11-12T02:58:54;96385.72;;;8.84;100.00
8075;BME280;4080;42.676;23.372;2022-11-12T03:01:21;96335.94;;;8.53;100.00
8075;BME280;4080;42.676;23.372;2022-11-12T03:03:56;96379.75;;;8.77;100.00
8075;BME280;4080;42.676;23.372;2022-11-12T03:06:22;96395.16;;;8.92;100.00
8075;BME280;4080;42.676;23.372;2022-11-12T03:08:49;96388.06;;;8.92;100.00
8075;BME280;4080;42.676;23.372;2022-11-12T03:11:17;96392.44;;;8.98;100.00
8075;BME280;4080;42.676;23.372;2022-11-12T03:13:44;96391.19;;;9.01;100.00
8075;BME280;4080;42.676;23.372;2022-11-12T03:16:11;96388.78;;;8.99;100.00
8075;BME280;4080;42.676;23.372;2022-11-12T03:18:37;96395.66;;;9.00;100.00
8075;BME280;4080;42.676;23.372;2022-11-12T03:21:04;96388.88;;;8.93;100.00
8075;BME280;4080;42.676;23.372;2022-11-12T03:23:31;96392.53;;;8.92;100.00
8075;BME280;4080;42.676;23.372;2022-11-12T03:26:01;96400.22;;;8.93;100.00
8075;BME280;4080;42.676;23.372;2022-11-12T03:28:30;96397.22;;;8.90;100.00
8075;BME280;4080;42.676;23.372;2022-11-12T03:30:59;96362.47;;;8.69;100.00
8075;BME280;4080;42.676;23.372;2022-11-12T03:33:26;96392.31;;;8.93;100.00
8075;BME280;4080;42.676;23.372;2022-11-12T03:35:52;96396.53;;;8.94;100.00
8075;BME280;4080;42.676;23.372;2022-11-12T03:38:19;96386.25;;;8.93;100.00
8075;BME280;4080;42.676;23.372;2022-11-12T03:40:48;96385.88;;;8.89;100.00
8075;BME280;4080;42.676;23.372;2022-11-12T03:43:15;96392.75;;;8.90;100.00
8075;BME280;4080;42.676;23.372;2022-11-12T03:45:43;96387.72;;;8.89;100.00
8075;BME280;4080;42.676;23.372;2022-11-12T03:48:12;96389.31;;;8.90;100.00
8075;BME280;4080;42.676;23.372;2022-11-12T03:50:40;96394.38;;;8.91;100.00
8075;BME280;4080;42.676;23.372;2022-11-12T03:53:07;96398.59;;;8.92;100.00
8075;BME280;4080;42.676;23.372;2022-11-12T03:55:34;96395.69;;;8.82;100.00
8075;BME280;4080;42.676;23.372;2022-11-12T03:58:01;96403.75;;;8.69;100.00
8075;BME280;4080;42.676;23.372;2022-11-12T04:00:28;96398.94;;;8.66;100.00
8075;BME280;4080;42.676;23.372;2022-11-12T04:02:57;96394.78;;;8.58;100.00
8075;BME280;4080;42.676;23.372;2022-11-12T04:05:25;96392.66;;;8.49;100.00
8075;BME280;4080;42.676;23.372;2022-11-12T04:08:12;96394.63;;;8.53;100.00
8075;BME280;4080;42.676;23.372;2022-11-12T04:10:56;96388.28;;;8.43;100.00
8075;BME280;4080;42.676;23.372;2022-11-12T04:13:23;96394.88;;;8.33;100.00
8075;BME280;4080;42.676;23.372;2022-11-12T04:15:59;96389.66;;;8.27;100.00
8075;BME280;4080;42.676;23.372;2022-11-12T04:18:47;96387.66;;;8.22;100.00
8075;BME280;4080;42.676;23.372;2022-11-12T04:21:36;96377.22;;;8.16;100.00
8075;BME280;4080;42.676;23.372;2022-11-12T04:24:16;96378.03;;;8.16;100.00
8075;BME280;4080;42.676;23.372;2022-11-12T04:27:00;96370.00;;;8.11;100.00
8075;BME280;4080;42.676;23.372;2022-11-12T04:29:27;96371.75;;;8.17;100.00
8075;BME280;4080;42.676;23.372;2022-11-12T04:32:11;96372.91;;;8.21;100.00
8075;BME280;4080;42.676;23.372;2022-11-12T04:34:39;96368.81;;;8.25;100.00
8075;BME280;4080;42.676;23.372;2022-11-12T04:37:06;96355.97;;;8.17;100.00
8075;BME280;4080;42.676;23.372;2022-11-12T04:39:33;96375.44;;;8.34;100.00
8075;BME280;4080;42.676;23.372;2022-11-12T04:42:00;96342.25;;;8.15;100.00
8075;BME280;4080;42.676;23.372;2022-11-12T04:44:45;96371.38;;;8.32;100.00
8075;BME280;4080;42.676;23.372;2022-11-12T04:47:30;96357.50;;;8.25;100.00
8075;BME280;4080;42.676;23.372;2022-11-12T04:49:58;96367.72;;;8.33;100.00
8075;BME280;4080;42.676;23.372;2022-11-12T04:52:26;96385.44;;;8.44;100.00
8075;BME280;4080;42.676;23.372;2022-11-12T04:54:53;96390.47;;;8.46;100.00
8075;BME280;4080;42.676;23.372;2022-11-12T04:57:20;96391.13;;;8.41;100.00
8075;BME280;4080;42.676;23.372;2022-11-12T04:59:47;96393.97;;;8.39;100.00
8075;BME280;4080;42.676;23.372;2022-11-12T05:02:14;96376.50;;;8.27;100.00
8075;BME280;4080;42.676;23.372;2022-11-12T05:04:41;96398.88;;;8.36;100.00
8075;BME280;4080;42.676;23.372;2022-11-12T05:07:09;96389.16;;;8.36;100.00
8075;BME280;4080;42.676;23.372;2022-11-12T05:09:36;96406.97;;;8.34;100.00
8075;BME280;4080;42.676;23.372;2022-11-12T05:12:03;96404.94;;;8.36;100.00
8075;BME280;4080;42.676;23.372;2022-11-12T05:14:30;96408.16;;;8.38;100.00
8075;BME280;4080;42.676;23.372;2022-11-12T05:16:57;96406.31;;;8.39;100.00
8075;BME280;4080;42.676;23.372;2022-11-12T05:19:24;96416.19;;;8.44;100.00
8075;BME280;4080;42.676;23.372;2022-11-12T05:21:51;96407.50;;;8.43;100.00
8075;BME280;4080;42.676;23.372;2022-11-12T05:24:36;96410.84;;;8.50;100.00
8075;BME280;4080;42.676;23.372;2022-11-12T05:27:05;96416.69;;;8.52;100.00
8075;BME280;4080;42.676;23.372;2022-11-12T05:29:32;96424.94;;;8.56;100.00
8075;BME280;4080;42.676;23.372;2022-11-12T05:31:59;96422.16;;;8.51;100.00
8075;BME280;4080;42.676;23.372;2022-11-12T05:34:26;96421.34;;;8.50;100.00
8075;BME280;4080;42.676;23.372;2022-11-12T05:36:53;96431.78;;;8.57;100.00
8075;BME280;4080;42.676;23.372;2022-11-12T05:39:20;96416.41;;;8.60;100.00
8075;BME280;4080;42.676;23.372;2022-11-12T05:41:48;96415.38;;;8.61;100.00
8075;BME280;4080;42.676;23.372;2022-11-12T05:44:15;96418.94;;;8.67;100.00
8075;BME280;4080;42.676;23.372;2022-11-12T05:46:42;96420.50;;;8.86;100.00
8075;BME280;4080;42.676;23.372;2022-11-12T05:49:09;96422.78;;;9.01;100.00
8075;BME280;4080;42.676;23.372;2022-11-12T05:51:36;96422.94;;;9.18;100.00
8075;BME280;4080;42.676;23.372;2022-11-12T05:54:03;96387.31;;;9.15;100.00
8075;BME280;4080;42.676;23.372;2022-11-12T05:56:30;96429.47;;;9.57;100.00
8075;BME280;4080;42.676;23.372;2022-11-12T05:58:59;96431.88;;;9.58;100.00
8075;BME280;4080;42.676;23.372;2022-11-12T06:01:26;96432.81;;;9.64;100.00
8075;BME280;4080;42.676;23.372;2022-11-12T06:03:54;96445.56;;;9.90;100.00
8075;BME280;4080;42.676;23.372;2022-11-12T06:06:20;96446.50;;;10.19;100.00
8075;BME280;4080;42.676;23.372;2022-11-12T06:08:47;96450.53;;;10.45;100.00
8075;BME280;4080;42.676;23.372;2022-11-12T06:11:14;96458.06;;;10.77;100.00
8075;BME280;4080;42.676;23.372;2022-11-12T06:13:41;96452.09;;;11.10;100.00
8075;BME280;4080;42.676;23.372;2022-11-12T06:16:09;96465.00;;;11.51;100.00
8075;BME280;4080;42.676;23.372;2022-11-12T06:18:36;96457.38;;;11.84;100.00
8075;BME280;4080;42.676;23.372;2022-11-12T06:21:04;96454.19;;;12.15;100.00
8075;BME280;4080;42.676;23.372;2022-11-12T06:23:49;96469.97;;;12.65;100.00
8075;BME280;4080;42.676;23.372;2022-11-12T06:26:17;96445.84;;;12.84;100.00
8075;BME280;4080;42.676;23.372;2022-11-12T06:28:44;96460.66;;;13.23;100.00
8075;BME280;4080;42.676;23.372;2022-11-12T06:31:13;96463.94;;;13.35;100.00
8075;BME280;4080;42.676;23.372;2022-11-12T06:33:40;96465.47;;;13.53;100.00
8075;BME280;4080;42.676;23.372;2022-11-12T06:36:09;96468.56;;;13.72;100.00
8075;BME280;4080;42.676;23.372;2022-11-12T06:38:37;96465.84;;;13.67;100.00
8075;BME280;4080;42.676;23.372;2022-11-12T06:41:04;96463.06;;;13.52;100.00
8075;BME280;4080;42.676;23.372;2022-11-12T06:43:32;96479.34;;;13.39;100.00
8075;BME280;4080;42.676;23.372;2022-11-12T06:46:00;96469.88;;;12.99;100.00
8075;BME280;4080;42.676;23.372;2022-11-12T06:48:46;96486.78;;;12.76;100.00
8075;BME280;4080;42.676;23.372;2022-11-12T06:51:16;96480.44;;;12.55;100.00
8075;BME280;4080;42.676;23.372;2022-11-12T06:53:43;96486.78;;;12.37;100.00
8075;BME280;4080;42.676;23.372;2022-11-12T06:56:10;96484.47;;;12.07;100.00
8075;BME280;4080;42.676;23.372;2022-11-12T06:58:37;96475.81;;;11.78;100.00
8075;BME280;4080;42.676;23.372;2022-11-12T07:01:09;96474.22;;;11.49;100.00
8075;BME280;4080;42.676;23.372;2022-11-12T07:03:37;96467.81;;;11.16;100.00
8075;BME280;4080;42.676;23.372;2022-11-12T07:06:07;96474.41;;;10.91;100.00
8075;BME280;4080;42.676;23.372;2022-11-12T07:08:35;96471.72;;;10.74;100.00
8075;BME280;4080;42.676;23.372;2022-11-12T07:11:02;96477.47;;;10.59;100.00
8075;BME280;4080;42.676;23.372;2022-11-12T07:13:29;96467.38;;;10.56;100.00
8075;BME280;4080;42.676;23.372;2022-11-12T07:15:57;96464.16;;;10.54;100.00
8075;BME280;4080;42.676;23.372;2022-11-12T07:18:24;96464.84;;;10.49;100.00
8075;BME280;4080;42.676;23.372;2022-11-12T07:20:55;96399.50;;;10.16;100.00
8075;BME280;4080;42.676;23.372;2022-11-12T07:23:23;96463.75;;;10.85;100.00
8075;BME280;4080;42.676;23.372;2022-11-12T07:25:55;96448.38;;;11.23;100.00
8075;BME280;4080;42.676;23.372;2022-11-12T07:28:22;96449.50;;;11.72;100.00
8075;BME280;4080;42.676;23.372;2022-11-12T07:30:54;96456.88;;;12.20;100.00
8075;BME280;4080;42.676;23.372;2022-11-12T07:33:20;96448.47;;;12.40;100.00
8075;BME280;4080;42.676;23.372;2022-11-12T07:35:47;96475.78;;;12.62;100.00
8075;BME280;4080;42.676;23.372;2022-11-12T07:38:14;96466.31;;;12.50;100.00
8075;BME280;4080;42.676;23.372;2022-11-12T07:40:42;96467.72;;;12.35;100.00
8075;BME280;4080;42.676;23.372;2022-11-12T07:43:09;96469.81;;;12.17;100.00
8075;BME280;4080;42.676;23.372;2022-11-12T07:45:35;96457.69;;;11.87;100.00
8075;BME280;4080;42.676;23.372;2022-11-12T07:48:03;96463.19;;;11.69;100.00
8075;BME280;4080;42.676;23.372;2022-11-12T07:50:30;96471.38;;;11.67;100.00
8075;BME280;4080;42.676;23.372;2022-11-12T07:52:57;96472.19;;;11.68;100.00
8075;BME280;4080;42.676;23.372;2022-11-12T07:55:24;96464.84;;;11.58;100.00
8075;BME280;4080;42.676;23.372;2022-11-12T07:57:59;96473.50;;;11.54;100.00
8075;BME280;4080;42.676;23.372;2022-11-12T08:00:26;96418.19;;;11.18;100.00
8075;BME280;4080;42.676;23.372;2022-11-12T08:02:53;96477.56;;;11.44;100.00
8075;BME280;4080;42.676;23.372;2022-11-12T08:05:19;96479.56;;;11.37;100.00
8075;BME280;4080;42.676;23.372;2022-11-12T08:07:46;96473.50;;;11.25;100.00
8075;BME280;4080;42.676;23.372;2022-11-12T08:10:13;96485.00;;;11.19;100.00
8075;BME280;4080;42.676;23.372;2022-11-12T08:12:40;96487.81;;;11.12;100.00
8075;BME280;4080;42.676;23.372;2022-11-12T08:15:08;96480.91;;;11.11;100.00
8075;BME280;4080;42.676;23.372;2022-11-12T08:17:38;96415.59;;;10.67;100.00
8075;BME280;4080;42.676;23.372;2022-11-12T08:20:06;96475.41;;;11.01;100.00
8075;BME280;4080;42.676;23.372;2022-11-12T08:22:33;96484.25;;;11.07;100.00
8075;BME280;4080;42.676;23.372;2022-11-12T08:24:59;96489.53;;;11.07;100.00
8075;BME280;4080;42.676;23.372;2022-11-12T08:27:26;96490.59;;;11.06;100.00
8075;BME280;4080;42.676;23.372;2022-11-12T08:29:53;96494.34;;;11.10;100.00
8075;BME280;4080;42.676;23.372;2022-11-12T08:32:21;96490.19;;;11.14;100.00
8075;BME280;4080;42.676;23.372;2022-11-12T08:34:48;96491.16;;;11.08;100.00
8075;BME280;4080;42.676;23.372;2022-11-12T08:37:15;96477.16;;;10.96;100.00
8075;BME280;4080;42.676;23.372;2022-11-12T08:39:42;96486.69;;;10.97;100.00
8075;BME280;4080;42.676;23.372;2022-11-12T08:42:11;96494.13;;;11.00;100.00
8075;BME280;4080;42.676;23.372;2022-11-12T08:44:38;96485.66;;;10.98;100.00
8075;BME280;4080;42.676;23.372;2022-11-12T08:47:04;96490.34;;;10.96;100.00
8075;BME280;4080;42.676;23.372;2022-11-12T08:49:33;96496.44;;;11.08;100.00
8075;BME280;4080;42.676;23.372;2022-11-12T08:51:59;96496.06;;;11.16;100.00
8075;BME280;4080;42.676;23.372;2022-11-12T08:54:26;96500.63;;;11.20;100.00
8075;BME280;4080;42.676;23.372;2022-11-12T08:56:54;96494.41;;;11.27;100.00
8075;BME280;4080;42.676;23.372;2022-11-12T08:59:21;96486.34;;;11.33;100.00
8075;BME280;4080;42.676;23.372;2022-11-12T09:01:48;96497.28;;;11.54;100.00
8075;BME280;4080;42.676;23.372;2022-11-12T09:04:14;96468.84;;;11.61;100.00
8075;BME280;4080;42.676;23.372;2022-11-12T09:06:43;96483.78;;;11.95;100.00
8075;BME280;4080;42.676;23.372;2022-11-12T09:09:10;96483.50;;;12.13;100.00
8075;BME280;4080;42.676;23.372;2022-11-12T09:11:36;96486.56;;;12.39;100.00
8075;BME280;4080;42.676;23.372;2022-11-12T09:14:03;96479.28;;;12.68;100.00
8075;BME280;4080;42.676;23.372;2022-11-12T09:16:33;96485.47;;;12.95;100.00
8075;BME280;4080;42.676;23.372;2022-11-12T09:19:00;96488.16;;;13.17;100.00
8075;BME280;4080;42.676;23.372;2022-11-12T09:21:26;96486.50;;;13.16;100.00
8075;BME280;4080;42.676;23.372;2022-11-12T09:23:54;96458.03;;;12.85;100.00
8075;BME280;4080;42.676;23.372;2022-11-12T09:26:21;96495.16;;;12.68;100.00
8075;BME280;4080;42.676;23.372;2022-11-12T09:28:48;96486.56;;;12.39;100.00
8075;BME280;4080;42.676;23.372;2022-11-12T09:31:16;96487.75;;;12.15;100.00
8075;BME280;4080;42.676;23.372;2022-11-12T09:33:43;96499.22;;;12.03;100.00
8075;BME280;4080;42.676;23.372;2022-11-12T09:36:10;96507.19;;;11.75;100.00
8075;BME280;4080;42.676;23.372;2022-11-12T09:38:38;96483.69;;;11.62;100.00
8075;BME280;4080;42.676;23.372;2022-11-12T09:41:19;96488.88;;;11.57;100.00
8075;BME280;4080;42.676;23.372;2022-11-12T09:43:50;96498.00;;;11.49;100.00
8075;BME280;4080;42.676;23.372;2022-11-12T09:46:27;96491.44;;;11.23;100.00
8075;BME280;4080;42.676;23.372;2022-11-12T09:49:00;96488.78;;;11.23;100.00
8075;BME280;4080;42.676;23.372;2022-11-12T09:51:33;96490.88;;;11.21;100.00
8075;BME280;4080;42.676;23.372;2022-11-12T09:54:05;96484.91;;;11.14;100.00
8075;BME280;4080;42.676;23.372;2022-11-12T09:56:40;96494.34;;;11.10;100.00
8075;BME280;4080;42.676;23.372;2022-11-12T09:59:10;96477.25;;;11.01;100.00
8075;BME280;4080;42.676;23.372;2022-11-12T10:01:43;96492.47;;;11.22;100.00
8075;BME280;4080;42.676;23.372;2022-11-12T10:04:24;96460.25;;;11.08;100.00
8075;BME280;4080;42.676;23.372;2022-11-12T10:06:58;96487.41;;;11.20;100.00
8075;BME280;4080;42.676;23.372;2022-11-12T10:09:30;96491.63;;;11.05;100.00
8075;BME280;4080;42.676;23.372;2022-11-12T10:12:10;96488.84;;;11.00;100.00
8075;BME280;4080;42.676;23.372;2022-11-12T10:15:19;96473.38;;;11.03;100.00
8075;BME280;4080;42.676;23.372;2022-11-12T10:18:12;96458.91;;;10.94;100.00
8075;BME280;4080;42.676;23.372;2022-11-12T10:20:45;96461.19;;;11.02;100.00
8075;BME280;4080;42.676;23.372;2022-11-12T10:23:17;96487.66;;;11.19;100.00
8075;BME280;4080;42.676;23.372;2022-11-12T10:25:45;96492.84;;;11.14;100.00
8075;BME280;4080;42.676;23.372;2022-11-12T10:28:23;96481.63;;;11.07;100.00
8075;BME280;4080;42.676;23.372;2022-11-12T10:30:53;96490.81;;;11.04;100.00
8075;BME280;4080;42.676;23.372;2022-11-12T10:33:22;96482.19;;;11.09;100.00
8075;BME280;4080;42.676;23.372;2022-11-12T10:35:50;96489.22;;;11.03;100.00
8075;BME280;4080;42.676;23.372;2022-11-12T10:38:24;96486.00;;;10.89;100.00
8075;BME280;4080;42.676;23.372;2022-11-12T10:40:52;96485.16;;;10.72;100.00
8075;BME280;4080;42.676;23.372;2022-11-12T10:43:23;96463.59;;;10.52;100.00
8075;BME280;4080;42.676;23.372;2022-11-12T10:45:50;96491.91;;;10.68;100.00
8075;BME280;4080;42.676;23.372;2022-11-12T10:48:22;96487.56;;;10.62;100.00
8075;BME280;4080;42.676;23.372;2022-11-12T10:50:52;96485.47;;;10.64;100.00
8075;BME280;4080;42.676;23.372;2022-11-12T10:53:31;96470.81;;;10.56;100.00
8075;BME280;4080;42.676;23.372;2022-11-12T10:55:59;96474.34;;;10.62;100.00
8075;BME280;4080;42.676;23.372;2022-11-12T10:58:28;96478.13;;;10.66;100.00
8075;BME280;4080;42.676;23.372;2022-11-12T11:00:59;96485.72;;;10.74;100.00
8075;BME280;4080;42.676;23.372;2022-11-12T11:03:30;96482.50;;;10.72;100.00
8075;BME280;4080;42.676;23.372;2022-11-12T11:05:59;96483.97;;;10.80;100.00
8075;BME280;4080;42.676;23.372;2022-11-12T11:08:35;96480.53;;;10.79;100.00
8075;BME280;4080;42.676;23.372;2022-11-12T11:11:17;96470.69;;;10.75;100.00
8075;BME280;4080;42.676;23.372;2022-11-12T11:13:46;96475.47;;;10.89;100.00
8075;BME280;4080;42.676;23.372;2022-11-12T11:16:15;96475.22;;;10.91;100.00
8075;BME280;4080;42.676;23.372;2022-11-12T11:18:46;96484.59;;;10.99;100.00
8075;BME280;4080;42.676;23.372;2022-11-12T11:21:33;96472.09;;;11.06;100.00
8075;BME280;4080;42.676;23.372;2022-11-12T11:24:17;96472.28;;;11.16;100.00
8075;BME280;4080;42.676;23.372;2022-11-12T11:26:55;96464.94;;;11.18;100.00
8075;BME280;4080;42.676;23.372;2022-11-12T11:32:22;96469.09;;;11.31;100.00
8075;BME280;4080;42.676;23.372;2022-11-12T11:35:01;96455.72;;;11.20;100.00
8075;BME280;4080;42.676;23.372;2022-11-12T11:37:35;96471.50;;;11.32;100.00
8075;BME280;4080;42.676;23.372;2022-11-12T11:40:10;96474.88;;;11.28;100.00
8075;BME280;4080;42.676;23.372;2022-11-12T11:42:54;96466.94;;;11.28;100.00
8075;BME280;4080;42.676;23.372;2022-11-12T11:45:29;96459.63;;;11.18;100.00
8075;BME280;4080;42.676;23.372;2022-11-12T11:48:06;96468.47;;;11.24;100.00
8075;BME280;4080;42.676;23.372;2022-11-12T11:50:40;96468.59;;;11.17;100.00
8075;BME280;4080;42.676;23.372;2022-11-12T11:53:17;96463.78;;;11.14;100.00
8075;BME280;4080;42.676;23.372;2022-11-12T11:55:53;96469.56;;;11.11;100.00
8075;BME280;4080;42.676;23.372;2022-11-12T11:58:34;96452.09;;;11.10;100.00
8075;BME280;4080;42.676;23.372;2022-11-12T12:01:14;96458.03;;;11.17;100.00
8075;BME280;4080;42.676;23.372;2022-11-12T12:03:58;96468.13;;;11.20;100.00
8075;BME280;4080;42.676;23.372;2022-11-12T12:06:35;96470.53;;;11.22;100.00
8075;BME280;4080;42.676;23.372;2022-11-12T12:09:16;96459.25;;;11.26;100.00
8075;BME280;4080;42.676;23.372;2022-11-12T12:11:52;96471.34;;;11.22;100.00
8075;BME280;4080;42.676;23.372;2022-11-12T12:14:41;96446.75;;;11.22;100.00
8075;BME280;4080;42.676;23.372;2022-11-12T12:17:19;96446.75;;;11.22;100.00
8075;BME280;4080;42.676;23.372;2022-11-12T12:19:59;96449.38;;;11.33;100.00
8075;BME280;4080;42.676;23.372;2022-11-12T12:22:34;96445.34;;;11.31;100.00
8075;BME280;4080;42.676;23.372;2022-11-12T12:25:09;96449.13;;;11.35;100.00
8075;BME280;4080;42.676;23.372;2022-11-12T12:27:46;96449.94;;;11.35;100.00
8075;BME280;4080;42.676;23.372;2022-11-12T12:30:18;96449.94;;;11.35;100.00
8075;BME280;4080;42.676;23.372;2022-11-12T12:32:50;96456.69;;;11.31;100.00
8075;BME280;4080;42.676;23.372;2022-11-12T12:35:24;96456.28;;;11.23;100.00
8075;BME280;4080;42.676;23.372;2022-11-12T12:37:57;96457.09;;;11.23;100.00
8075;BME280;4080;42.676;23.372;2022-11-12T12:40:32;96440.41;;;11.06;100.00
8075;BME280;4080;42.676;23.372;2022-11-12T12:43:05;96454.19;;;11.08;100.00
8075;BME280;4080;42.676;23.372;2022-11-12T12:45:39;96480.16;;;11.28;100.00
8075;BME280;4080;42.676;23.372;2022-11-12T12:48:12;96455.09;;;11.30;100.00
8075;BME280;4080;42.676;23.372;2022-11-12T12:50:41;96456.63;;;11.26;100.00
8075;BME280;4080;42.676;23.372;2022-11-12T12:53:16;96460.16;;;11.32;100.00
8075;BME280;4080;42.676;23.372;2022-11-12T12:55:45;96466.06;;;11.22;100.00
8075;BME280;4080;42.676;23.372;2022-11-12T12:58:24;96465.41;;;11.15;100.00
8075;BME280;4080;42.676;23.372;2022-11-12T13:00:53;96455.22;;;10.95;100.00
8075;BME280;4080;42.676;23.372;2022-11-12T13:03:56;96461.78;;;10.93;100.00
8075;BME280;4080;42.676;23.372;2022-11-12T13:06:26;96466.72;;;10.89;100.00
8075;BME280;4080;42.676;23.372;2022-11-12T13:08:56;96458.53;;;10.74;100.00
8075;BME280;4080;42.676;23.372;2022-11-12T13:11:51;96466.31;;;10.69;100.00
8075;BME280;4080;42.676;23.372;2022-11-12T13:15:12;96465.09;;;10.48;100.00
8075;BME280;4080;42.676;23.372;2022-11-12T13:17:47;96463.94;;;10.44;100.00
8075;BME280;4080;42.676;23.372;2022-11-12T13:20:31;96464.97;;;10.31;100.00
8075;BME280;4080;42.676;23.372;2022-11-12T13:22:58;96468.41;;;10.32;100.00
8075;BME280;4080;42.676;23.372;2022-11-12T13:25:27;96459.59;;;10.26;100.00
8075;BME280;4080;42.676;23.372;2022-11-12T13:28:18;96463.84;;;10.27;100.00